Time;durP1;ratioP1;P1;durP2;ratioP2;P2;SDS_P1;SDS_P2;PMS_P1;PMS_P2;Temp;Humidity;BMP_temperature;BMP_pressure;BME280_temperature;BME280_humidity;BME280_pressure;Samples;Min_cycle;Max_cycle;Signal;HPM_P1;HPM_P2
2023/02/26 00:00:46;;;;;;;13.13;3.25;;;3.80;87.70;;;;;;5071756;28;20383;-76
2023/02/26 00:03:12;;;;;;;12.60;2.95;;;3.80;87.70;;;;;;5078304;28;20047;-75
2023/02/26 00:05:38;;;;;;;9.90;3.13;;;3.70;87.70;;;;;;5079245;28;20143;-75
2023/02/26 00:08:04;;;;;;;14.30;2.80;;;3.70;87.60;;;;;;5078602;28;20043;-75
2023/02/26 00:10:30;;;;;;;12.98;3.17;;;3.70;87.90;;;;;;5078510;28;20020;-78
2023/02/26 00:12:56;;;;;;;7.57;1.98;;;3.70;87.90;;;;;;5077593;28;20160;-76
2023/02/26 00:15:23;;;;;;;8.82;2.65;;;3.70;87.90;;;;;;5072899;28;20145;-76
2023/02/26 00:18:05;;;;;;;10.20;2.35;;;3.70;88.00;;;;;;5076538;28;20103;-76
2023/02/26 00:20:31;;;;;;;15.43;3.15;;;3.70;87.90;;;;;;5078555;28;20025;-76
2023/02/26 00:22:57;;;;;;;20.80;3.50;;;3.60;87.90;;;;;;5078989;28;20034;-76
2023/02/26 00:25:23;;;;;;;12.20;3.20;;;3.60;87.90;;;;;;5078051;28;20029;-77
2023/02/26 00:27:49;;;;;;;12.48;2.63;;;3.60;88.10;;;;;;5077064;28;20032;-76
2023/02/26 00:30:15;;;;;;;10.20;2.50;;;3.60;88.40;;;;;;5077598;28;20617;-76
2023/02/26 00:32:41;;;;;;;8.95;2.42;;;3.60;88.20;;;;;;5078713;28;20141;-76
2023/02/26 00:35:10;;;;;;;9.93;3.30;;;3.60;88.10;;;;;;5077932;28;20083;-76
2023/02/26 00:37:59;;;;;;;10.80;2.95;;;3.60;88.00;;;;;;5080857;28;20033;-76
2023/02/26 00:40:47;;;;;;;10.35;3.05;;;3.50;88.00;;;;;;5078547;28;20016;-76
2023/02/26 00:43:25;;;;;;;10.50;2.67;;;3.50;88.10;;;;;;5076304;28;20061;-77
2023/02/26 00:46:09;;;;;;;10.05;2.30;;;3.40;88.20;;;;;;5077463;28;20029;-77
2023/02/26 00:48:37;;;;;;;7.13;2.38;;;3.40;88.20;;;;;;5078325;28;20081;-76
2023/02/26 00:51:31;;;;;;;10.63;3.03;;;3.40;88.30;;;;;;5073468;28;20463;-76
2023/02/26 00:54:03;;;;;;;7.90;2.42;;;3.40;88.30;;;;;;5060693;28;20078;-76
2023/02/26 00:56:30;;;;;;;10.75;3.35;;;3.40;88.30;;;;;;5079240;28;20017;-75
2023/02/26 00:58:56;;;;;;;10.35;3.60;;;3.40;89.20;;;;;;5076527;28;20109;-76
2023/02/26 01:01:22;;;;;;;13.35;2.55;;;3.40;88.40;;;;;;5075428;28;20020;-75
2023/02/26 01:03:48;;;;;;;10.15;2.20;;;3.40;88.40;;;;;;5074089;28;20036;-75
2023/02/26 01:06:17;;;;;;;9.48;2.28;;;3.40;88.30;;;;;;5077693;28;20587;-75
2023/02/26 01:08:56;;;;;;;10.90;2.53;;;3.40;88.20;;;;;;5075369;28;20024;-75
2023/02/26 01:11:22;;;;;;;6.57;2.53;;;3.30;88.50;;;;;;5077293;28;20508;-77
2023/02/26 01:13:48;;;;;;;7.07;2.08;;;3.30;88.70;;;;;;5077280;28;20032;-75
2023/02/26 01:16:20;;;;;;;7.28;2.00;;;3.30;88.70;;;;;;5075789;28;20488;-76
2023/02/26 01:19:04;;;;;;;10.68;2.53;;;3.30;88.90;;;;;;5079031;28;20055;-76
2023/02/26 01:21:37;;;;;;;8.80;2.28;;;3.30;88.60;;;;;;5078203;28;20537;-76
2023/02/26 01:24:07;;;;;;;8.18;2.10;;;3.30;88.60;;;;;;5077165;28;20115;-76
2023/02/26 01:26:33;;;;;;;9.65;3.00;;;3.30;88.60;;;;;;5078053;28;20016;-76
2023/02/26 01:28:59;;;;;;;9.90;2.53;;;3.20;88.70;;;;;;5074357;28;20074;-75
2023/02/26 01:32:12;;;;;;;8.55;2.28;;;3.30;88.30;;;;;;5074736;28;20044;-75
2023/02/26 01:34:43;;;;;;;8.18;2.35;;;3.20;87.80;;;;;;5001008;28;20835;-76
2023/02/26 01:37:32;;;;;;;9.00;2.20;;;3.20;88.00;;;;;;5062604;28;20071;-75
2023/02/26 01:40:16;;;;;;;7.72;2.65;;;3.20;88.20;;;;;;5075309;28;20029;-75
2023/02/26 01:42:45;;;;;;;8.75;2.63;;;3.20;87.80;;;;;;5078640;28;20435;-75
2023/02/26 01:45:15;;;;;;;8.20;2.22;;;3.20;88.90;;;;;;5073541;28;20463;-75
2023/02/26 01:47:56;;;;;;;12.13;2.60;;;3.10;88.30;;;;;;5073263;28;20342;-74
2023/02/26 01:50:30;;;;;;;9.45;2.38;;;3.10;88.10;;;;;;5076541;28;20028;-76
2023/02/26 01:53:15;;;;;;;8.88;2.33;;;3.10;88.20;;;;;;5074967;28;20215;-76
2023/02/26 01:55:43;;;;;;;10.70;2.30;;;3.10;88.50;;;;;;5077780;28;20044;-75
2023/02/26 01:58:09;;;;;;;20.85;2.78;;;3.10;88.50;;;;;;5071503;28;20108;-76
2023/02/26 02:00:35;;;;;;;10.32;2.15;;;3.00;88.50;;;;;;5075243;28;20024;-75
2023/02/26 02:03:01;;;;;;;7.50;2.20;;;3.00;88.50;;;;;;5077069;28;20028;-75
2023/02/26 02:05:31;;;;;;;12.52;2.42;;;2.90;88.60;;;;;;5074773;28;20127;-76
2023/02/26 02:07:58;;;;;;;10.45;2.60;;;2.90;88.80;;;;;;5075423;28;20025;-75
2023/02/26 02:10:24;;;;;;;10.98;2.17;;;2.90;89.00;;;;;;5076826;28;20039;-75
2023/02/26 02:13:02;;;;;;;16.70;2.45;;;2.90;89.10;;;;;;5072557;28;20111;-77
2023/02/26 02:15:40;;;;;;;8.00;2.10;;;2.80;89.10;;;;;;5073993;28;20479;-75
2023/02/26 02:18:47;;;;;;;11.70;3.85;;;2.80;89.30;;;;;;5073389;28;20439;-75
2023/02/26 02:21:25;;;;;;;9.20;2.47;;;2.80;89.30;;;;;;5071912;28;20467;-75
2023/02/26 02:24:06;;;;;;;14.13;2.45;;;2.70;89.30;;;;;;5075331;28;20036;-76
2023/02/26 02:26:55;;;;;;;8.60;2.00;;;2.70;89.50;;;;;;5075018;28;20036;-76
2023/02/26 02:29:49;;;;;;;7.95;2.60;;;2.70;89.60;;;;;;5073606;28;20026;-75
2023/02/26 02:32:26;;;;;;;7.75;1.88;;;2.60;90.10;;;;;;5072605;28;20429;-75
2023/02/26 02:35:04;;;;;;;10.23;2.00;;;2.60;90.00;;;;;;5091193;28;20032;-75
2023/02/26 02:37:38;;;;;;;11.30;2.55;;;2.60;90.00;;;;;;5072834;28;20116;-76
2023/02/26 02:40:07;;;;;;;8.70;2.33;;;2.60;89.60;;;;;;5076759;28;20043;-75
2023/02/26 02:42:55;;;;;;;8.02;2.60;;;2.60;89.60;;;;;;5073501;28;20048;-76
2023/02/26 02:45:30;;;;;;;7.88;2.50;;;2.60;89.80;;;;;;5060496;28;20033;-74
2023/02/26 02:48:02;;;;;;;12.48;2.53;;;2.60;89.40;;;;;;5075986;28;20033;-75
2023/02/26 02:50:58;;;;;;;8.73;2.75;;;2.60;88.90;;;;;;5073127;28;20028;-75
2023/02/26 02:53:29;;;;;;;6.93;2.38;;;2.60;88.80;;;;;;5073296;28;20048;-75
2023/02/26 02:56:04;;;;;;;9.25;2.08;;;2.60;88.60;;;;;;5069554;28;20052;-75
2023/02/26 02:58:34;;;;;;;9.70;2.10;;;2.60;88.50;;;;;;5073174;28;20081;-76
2023/02/26 03:01:07;;;;;;;9.88;2.45;;;2.60;88.20;;;;;;5073313;28;20383;-76
2023/02/26 03:03:45;;;;;;;14.35;2.45;;;2.60;88.10;;;;;;5075412;28;20034;-73
2023/02/26 03:06:10;;;;;;;8.13;1.83;;;2.60;88.40;;;;;;5074849;28;20127;-74
2023/02/26 03:08:43;;;;;;;15.45;2.42;;;2.60;88.40;;;;;;5075107;28;20161;-74
2023/02/26 03:11:09;;;;;;;9.27;2.15;;;2.50;88.00;;;;;;5073123;28;20020;-75
2023/02/26 03:13:38;;;;;;;8.38;1.90;;;2.50;88.20;;;;;;5069444;28;21494;-75
2023/02/26 03:16:24;;;;;;;9.20;1.83;;;2.50;88.10;;;;;;5078077;28;20032;-75
2023/02/26 03:19:13;;;;;;;9.30;2.10;;;2.50;87.90;;;;;;5072051;28;20028;-75
2023/02/26 03:22:03;;;;;;;7.35;1.92;;;2.50;87.90;;;;;;5070663;28;20060;-76
2023/02/26 03:24:33;;;;;;;12.25;3.80;;;2.40;87.40;;;;;;5075797;28;20050;-75
2023/02/26 03:27:17;;;;;;;;;;;2.40;87.20;;;;;;5072500;28;20028;-75
2023/02/26 03:29:55;;;;;;;9.77;1.70;;;2.40;87.30;;;;;;5073437;28;19923;-76
2023/02/26 03:32:59;;;;;;;8.32;1.90;;;2.30;87.10;;;;;;5072425;28;20028;-75
2023/02/26 03:35:37;;;;;;;10.05;2.00;;;2.30;87.40;;;;;;5072537;28;20040;-74
2023/02/26 03:38:07;;;;;;;8.40;1.80;;;2.30;87.40;;;;;;5076887;28;20024;-74
2023/02/26 03:40:47;;;;;;;9.80;1.85;;;2.30;87.20;;;;;;5078568;28;20064;-75
2023/02/26 03:43:22;;;;;;;7.88;1.80;;;2.30;86.80;;;;;;5079952;28;20036;-75
2023/02/26 03:45:53;;;;;;;10.95;1.77;;;2.30;86.40;;;;;;5083333;28;20031;-75
2023/02/26 03:48:23;;;;;;;18.98;1.92;;;2.30;86.50;;;;;;5073669;28;20143;-75
2023/02/26 03:50:52;;;;;;;6.47;1.58;;;2.30;86.40;;;;;;5072104;28;20055;-74
2023/02/26 03:53:23;;;;;;;7.35;2.90;;;2.30;86.20;;;;;;5072659;28;20020;-74
2023/02/26 03:56:14;;;;;;;8.30;1.95;;;2.30;86.30;;;;;;5072787;28;20131;-76
2023/02/26 03:58:40;;;;;;;8.80;2.10;;;2.30;86.40;;;;;;5072936;28;20024;-77
2023/02/26 04:01:11;;;;;;;9.02;2.05;;;2.30;86.50;;;;;;5072200;28;20025;-74
2023/02/26 04:04:01;;;;;;;9.93;1.83;;;2.30;86.60;;;;;;5072291;28;20649;-75
2023/02/26 04:06:28;;;;;;;5.53;1.98;;;2.20;86.60;;;;;;5071516;28;20078;-75
2023/02/26 04:08:55;;;;;;;11.30;2.35;;;2.20;86.70;;;;;;5069593;28;20029;-75
2023/02/26 04:11:24;;;;;;;8.15;1.67;;;2.20;86.60;;;;;;5072916;28;20399;-76
2023/02/26 04:13:50;;;;;;;7.88;1.73;;;2.20;86.40;;;;;;5073109;28;20032;-76
2023/02/26 04:16:17;;;;;;;6.63;2.28;;;2.20;86.30;;;;;;5072436;28;20043;-74
2023/02/26 04:18:43;;;;;;;11.25;2.53;;;2.20;86.30;;;;;;5073078;28;20019;-75
2023/02/26 04:21:19;;;;;;;7.25;1.75;;;2.10;86.30;;;;;;5073916;28;20103;-74
2023/02/26 04:23:44;;;;;;;12.18;2.40;;;2.10;86.60;;;;;;5087479;28;20453;-75
2023/02/26 04:26:12;;;;;;;8.25;1.70;;;2.10;86.40;;;;;;5075093;28;20112;-73
2023/02/26 04:28:38;;;;;;;6.53;1.80;;;2.10;86.40;;;;;;5070828;28;20064;-75
2023/02/26 04:31:05;;;;;;;6.43;1.60;;;2.00;86.20;;;;;;5069582;28;20021;-74
2023/02/26 04:33:32;;;;;;;10.80;1.65;;;2.00;86.10;;;;;;5070612;28;20432;-75
2023/02/26 04:35:58;;;;;;;8.30;1.58;;;2.00;86.40;;;;;;5069990;28;20136;-74
2023/02/26 04:38:24;;;;;;;7.03;1.67;;;2.00;86.10;;;;;;5078828;28;20055;-74
2023/02/26 04:40:50;;;;;;;7.22;1.83;;;2.00;85.60;;;;;;5072913;28;20505;-75
2023/02/26 04:43:16;;;;;;;7.57;2.25;;;2.00;86.20;;;;;;5074335;28;20109;-75
2023/02/26 04:45:47;;;;;;;8.10;1.88;;;2.00;85.30;;;;;;5076670;28;20024;-75
2023/02/26 04:48:14;;;;;;;11.20;1.55;;;2.00;85.60;;;;;;5074599;28;20032;-74
2023/02/26 04:50:40;;;;;;;7.68;1.52;;;2.00;86.00;;;;;;5076752;28;20036;-75
2023/02/26 04:53:05;;;;;;;7.53;1.30;;;2.00;86.80;;;;;;5078438;28;20052;-74
2023/02/26 04:55:32;;;;;;;11.85;1.52;;;2.00;91.10;;;;;;5073674;28;20039;-75
2023/02/26 04:57:57;;;;;;;5.57;1.23;;;2.00;88.20;;;;;;5070038;28;20117;-74
2023/02/26 05:00:24;;;;;;;11.85;1.35;;;2.00;86.30;;;;;;5074397;28;20062;-75
2023/02/26 05:02:50;;;;;;;7.75;1.90;;;2.00;87.00;;;;;;5070605;28;20029;-75
2023/02/26 05:05:16;;;;;;;9.25;1.35;;;1.90;85.40;;;;;;5074810;28;20394;-74
2023/02/26 05:07:41;;;;;;;8.70;1.60;;;2.00;86.20;;;;;;5078150;28;20509;-75
2023/02/26 05:10:08;;;;;;;8.60;1.77;;;2.00;85.10;;;;;;5074359;28;20049;-76
2023/02/26 05:12:34;;;;;;;8.40;1.70;;;2.00;84.10;;;;;;5071563;28;20139;-75
2023/02/26 05:14:59;;;;;;;9.65;1.42;;;2.00;83.20;;;;;;5074423;28;20699;-74
2023/02/26 05:17:25;;;;;;;7.18;1.92;;;2.00;83.20;;;;;;5075909;28;20074;-76
2023/02/26 05:19:50;;;;;;;9.48;1.42;;;2.00;84.00;;;;;;5072904;28;20187;-75
2023/02/26 05:22:16;;;;;;;7.63;1.67;;;2.00;83.20;;;;;;5076097;28;20067;-74
2023/02/26 05:24:42;;;;;;;5.32;1.60;;;2.00;83.10;;;;;;5075748;28;20112;-75
2023/02/26 05:27:08;;;;;;;6.72;1.90;;;2.00;82.80;;;;;;5071667;28;20100;-75
2023/02/26 05:29:34;;;;;;;4.00;1.20;;;1.90;82.30;;;;;;5076369;28;20056;-75
2023/02/26 05:32:02;;;;;;;6.15;1.40;;;1.90;83.10;;;;;;5078238;28;20082;-74
2023/02/26 05:34:28;;;;;;;6.43;1.27;;;1.90;82.70;;;;;;5075303;28;20044;-75
2023/02/26 05:36:53;;;;;;;6.20;1.30;;;1.90;82.60;;;;;;5073461;28;20455;-75
2023/02/26 05:39:19;;;;;;;10.93;1.75;;;1.90;82.30;;;;;;5074616;28;20020;-74
2023/02/26 05:41:45;;;;;;;9.45;1.52;;;1.90;82.80;;;;;;5074381;28;20046;-75
2023/02/26 05:44:11;;;;;;;7.05;1.20;;;1.90;82.70;;;;;;5077211;28;20032;-75
2023/02/26 05:46:37;;;;;;;5.00;1.42;;;1.90;85.90;;;;;;5073918;28;20482;-74
2023/02/26 05:49:03;;;;;;;8.88;1.40;;;1.90;86.00;;;;;;5074354;28;20078;-75
2023/02/26 05:51:28;;;;;;;6.15;1.40;;;1.90;89.40;;;;;;5070336;28;20051;-76
2023/02/26 05:53:54;;;;;;;4.05;0.88;;;1.80;85.70;;;;;;5073872;28;21405;-74
2023/02/26 05:56:20;;;;;;;13.45;3.55;;;1.90;87.10;;;;;;5072157;28;20057;-74
2023/02/26 05:58:45;;;;;;;4.78;1.00;;;1.90;91.30;;;;;;5075770;28;20495;-75
2023/02/26 06:01:11;;;;;;;5.05;1.45;;;1.90;88.20;;;;;;5073081;28;20048;-75
2023/02/26 06:03:42;;;;;;;11.43;1.30;;;1.90;86.60;;;;;;5076252;28;20024;-74
2023/02/26 06:06:16;;;;;;;9.80;1.80;;;1.90;85.10;;;;;;5073277;28;20041;-75
2023/02/26 06:08:42;;;;;;;7.10;1.30;;;1.80;83.40;;;;;;5072692;28;20496;-74
2023/02/26 06:11:08;;;;;;;4.55;1.10;;;1.80;83.10;;;;;;5070521;28;20028;-75
2023/02/26 06:13:33;;;;;;;8.90;1.50;;;1.90;84.60;;;;;;5070931;28;20021;-74
2023/02/26 06:16:00;;;;;;;7.60;1.88;;;1.90;85.10;;;;;;5072725;28;20051;-75
2023/02/26 06:18:26;;;;;;;10.55;1.55;;;1.90;83.70;;;;;;5091814;28;20024;-75
2023/02/26 06:20:52;;;;;;;7.15;1.40;;;1.90;82.70;;;;;;5071254;28;20028;-74
2023/02/26 06:23:18;;;;;;;4.22;1.25;;;1.80;82.40;;;;;;5072351;28;20062;-75
2023/02/26 06:25:44;;;;;;;6.85;1.30;;;1.90;87.00;;;;;;5073883;28;20495;-75
2023/02/26 06:28:10;;;;;;;8.60;2.33;;;1.80;84.20;;;;;;5069618;28;20039;-74
2023/02/26 06:30:35;;;;;;;5.93;1.63;;;1.80;83.10;;;;;;5072436;28;20032;-73
2023/02/26 06:33:02;;;;;;;8.70;1.30;;;1.80;82.50;;;;;;5076123;28;20028;-75
2023/02/26 06:35:28;;;;;;;5.43;1.30;;;1.80;82.20;;;;;;5074317;28;20024;-75
2023/02/26 06:37:55;;;;;;;8.93;2.00;;;1.80;82.30;;;;;;5071935;28;20016;-74
2023/02/26 06:40:21;;;;;;;6.65;1.25;;;1.90;86.40;;;;;;5077666;28;20122;-76
2023/02/26 06:42:49;;;;;;;8.65;1.27;;;1.80;84.40;;;;;;5075325;28;20035;-74
2023/02/26 06:45:14;;;;;;;4.03;1.00;;;1.80;86.30;;;;;;5075438;28;20857;-73
2023/02/26 06:47:40;;;;;;;6.10;1.52;;;2.00;86.40;;;;;;5075338;28;20024;-75
2023/02/26 06:50:07;;;;;;;9.00;2.13;;;2.10;86.90;;;;;;5081174;28;20525;-76
2023/02/26 06:52:32;;;;;;;6.20;1.10;;;2.40;87.40;;;;;;5077511;28;20074;-76
2023/02/26 06:54:58;;;;;;;13.68;1.60;;;2.70;84.80;;;;;;5077493;28;20497;-74
2023/02/26 06:57:23;;;;;;;9.48;1.50;;;3.00;90.20;;;;;;5077515;28;20101;-75
2023/02/26 06:59:50;;;;;;;6.35;1.10;;;3.30;88.40;;;;;;5070377;28;20028;-75
2023/02/26 07:02:19;;;;;;;5.45;0.90;;;3.50;83.20;;;;;;5071781;28;20084;-75
2023/02/26 07:04:45;;;;;;;7.28;1.40;;;3.70;81.70;;;;;;5075411;28;20040;-75
2023/02/26 07:07:11;;;;;;;3.85;1.17;;;3.80;81.50;;;;;;5075992;28;20048;-75
2023/02/26 07:09:37;;;;;;;8.65;1.60;;;4.00;83.80;;;;;;5076862;28;20016;-77
2023/02/26 07:12:03;;;;;;;4.65;1.20;;;4.00;79.20;;;;;;5070575;28;20069;-75
2023/02/26 07:14:29;;;;;;;7.10;1.80;;;4.20;77.80;;;;;;5071819;28;20059;-74
2023/02/26 07:16:54;;;;;;;7.53;1.20;;;4.50;86.30;;;;;;5070447;28;20075;-76
2023/02/26 07:19:21;;;;;;;3.38;0.80;;;4.60;88.60;;;;;;5070886;28;20021;-76
2023/02/26 07:21:47;;;;;;;7.63;1.58;;;4.70;90.30;;;;;;5074324;28;20089;-74
2023/02/26 07:24:13;;;;;;;5.60;1.25;;;4.80;92.50;;;;;;5071753;28;20060;-75
2023/02/26 07:26:39;;;;;;;7.80;2.42;;;4.90;91.10;;;;;;5071465;28;20194;-75
2023/02/26 07:29:05;;;;;;;5.15;0.93;;;5.00;90.20;;;;;;5070773;28;20025;-76
2023/02/26 07:31:31;;;;;;;4.25;1.23;;;5.10;83.40;;;;;;5069277;28;20623;-73
2023/02/26 07:33:57;;;;;;;3.63;1.02;;;5.30;90.80;;;;;;5070697;28;20060;-75
2023/02/26 07:36:23;;;;;;;7.68;1.92;;;5.20;85.80;;;;;;5071908;28;20381;-75
2023/02/26 07:38:48;;;;;;;7.03;1.02;;;5.10;86.20;;;;;;5072481;28;20036;-75
2023/02/26 07:41:14;;;;;;;3.33;1.08;;;5.30;92.20;;;;;;5070941;28;20612;-74
2023/02/26 07:43:40;;;;;;;5.07;1.25;;;5.30;84.10;;;;;;5068564;28;20038;-77
2023/02/26 07:46:09;;;;;;;4.20;0.82;;;5.40;82.70;;;;;;5072389;28;20020;-74
2023/02/26 07:48:35;;;;;;;9.95;1.80;;;5.50;81.00;;;;;;5072396;28;20097;-77
2023/02/26 07:51:01;;;;;;;3.03;1.17;;;5.60;80.50;;;;;;5069605;28;20039;-77
2023/02/26 07:53:27;;;;;;;5.13;1.17;;;5.60;84.20;;;;;;5070429;28;20668;-75
2023/02/26 07:55:53;;;;;;;5.22;1.30;;;5.70;86.80;;;;;;5070962;28;20430;-75
2023/02/26 07:58:19;;;;;;;5.00;1.02;;;5.80;78.10;;;;;;5071378;28;20028;-75
2023/02/26 08:00:44;;;;;;;6.65;1.52;;;6.00;84.40;;;;;;5069979;28;20024;-74
2023/02/26 08:03:10;;;;;;;5.38;0.90;;;6.20;78.40;;;;;;5069980;28;20036;-76
2023/02/26 08:05:36;;;;;;;4.85;1.20;;;6.40;90.80;;;;;;5070838;28;20051;-77
2023/02/26 08:08:02;;;;;;;3.70;1.58;;;6.50;82.90;;;;;;5077050;28;20467;-76
2023/02/26 08:10:28;;;;;;;3.72;0.98;;;6.50;85.40;;;;;;5072432;28;20101;-77
2023/02/26 08:12:59;;;;;;;5.97;1.50;;;6.60;86.70;;;;;;5078835;28;20085;-79
2023/02/26 08:15:25;;;;;;;5.15;1.10;;;6.70;87.80;;;;;;5076005;28;20062;-77
2023/02/26 08:17:52;;;;;;;4.80;1.10;;;6.70;93.90;;;;;;5077140;28;20165;-76
2023/02/26 08:20:18;;;;;;;4.43;1.05;;;6.70;92.70;;;;;;5076633;28;20024;-77
2023/02/26 08:22:44;;;;;;;4.15;1.05;;;6.80;87.40;;;;;;5079719;28;20036;-77
2023/02/26 08:25:11;;;;;;;5.78;1.45;;;6.80;89.80;;;;;;5077097;28;20753;-77
2023/02/26 08:27:37;;;;;;;6.38;1.15;;;6.90;90.50;;;;;;5079685;28;20017;-78
2023/02/26 08:30:04;;;;;;;4.07;1.30;;;7.00;92.50;;;;;;5078977;28;20457;-79
2023/02/26 08:32:31;;;;;;;4.70;0.95;;;7.00;91.40;;;;;;5077643;28;20031;-77
2023/02/26 08:34:57;;;;;;;5.72;1.65;;;7.20;92.10;;;;;;5075933;28;20119;-77
2023/02/26 08:37:23;;;;;;;4.90;1.55;;;7.10;89.50;;;;;;5077804;28;20037;-76
2023/02/26 08:39:53;;;;;;;4.20;0.90;;;7.10;84.70;;;;;;5074587;28;20021;-78
2023/02/26 08:42:19;;;;;;;4.93;1.20;;;7.20;90.00;;;;;;5081598;28;20036;-77
2023/02/26 08:44:46;;;;;;;3.38;1.08;;;7.30;91.70;;;;;;5080112;28;20154;-78
2023/02/26 08:47:14;;;;;;;5.40;1.42;;;7.30;95.20;;;;;;5076841;28;20032;-79
2023/02/26 08:49:40;;;;;;;3.92;1.08;;;7.20;91.60;;;;;;5080572;28;20029;-78
2023/02/26 08:52:06;;;;;;;4.18;0.95;;;7.20;94.60;;;;;;5078052;28;20016;-78
2023/02/26 08:54:37;;;;;;;7.50;1.35;;;7.20;95.70;;;;;;5077122;28;20115;-78
2023/02/26 08:57:03;;;;;;;7.30;1.63;;;7.30;95.10;;;;;;5075327;28;20383;-76
2023/02/26 08:59:28;;;;;;;5.15;1.42;;;7.50;93.10;;;;;;5078642;28;20034;-78
2023/02/26 09:01:54;;;;;;;7.25;1.50;;;7.60;94.90;;;;;;5079819;28;20036;-80
2023/02/26 09:04:21;;;;;;;3.25;1.08;;;7.70;94.10;;;;;;5079188;28;20139;-80
2023/02/26 09:06:47;;;;;;;5.10;1.42;;;7.70;92.80;;;;;;5081198;28;20046;-78
2023/02/26 09:09:12;;;;;;;5.03;1.20;;;7.70;86.00;;;;;;5064163;28;20425;-79
2023/02/26 09:11:38;;;;;;;5.43;1.38;;;7.90;97.30;;;;;;5073918;28;20125;-77
2023/02/26 09:14:04;;;;;;;4.47;1.73;;;7.90;93.70;;;;;;5081798;28;20043;-77
2023/02/26 09:16:35;;;;;;;3.88;1.10;;;8.00;93.90;;;;;;5077408;28;20378;-77
2023/02/26 09:19:02;;;;;;;5.05;1.00;;;8.10;93.60;;;;;;5078099;28;20049;-79
2023/02/26 09:21:29;;;;;;;2.63;1.10;;;8.10;87.70;;;;;;5077119;28;20028;-77
2023/02/26 09:23:54;;;;;;;6.70;1.48;;;8.20;92.40;;;;;;5078600;28;20020;-77
2023/02/26 09:26:20;;;;;;;2.20;0.80;;;8.40;96.40;;;;;;5077170;28;20029;-79
2023/02/26 09:28:47;;;;;;;4.80;1.00;;;8.50;96.10;;;;;;5072649;28;20869;-79
2023/02/26 09:31:13;;;;;;;3.40;1.10;;;8.60;98.90;;;;;;5075248;28;20043;-78
2023/02/26 09:33:39;;;;;;;8.32;1.30;;;8.60;92.00;;;;;;5073765;28;20024;-78
2023/02/26 09:36:05;;;;;;;2.13;0.80;;;8.80;97.50;;;;;;5074566;28;20016;-78
2023/02/26 09:38:31;;;;;;;4.30;0.70;;;8.90;99.20;;;;;;5077459;28;20020;-77
2023/02/26 09:41:15;;;;;;;4.28;1.10;;;8.80;96.70;;;;;;5078567;28;20448;-79
2023/02/26 09:44:09;;;;;;;4.75;1.00;;;8.80;94.20;;;;;;5079651;28;20064;-79
2023/02/26 09:46:49;;;;;;;3.08;1.25;;;8.90;95.80;;;;;;5080756;28;20131;-77
2023/02/26 09:49:22;;;;;;;4.85;1.17;;;9.10;96.50;;;;;;5087619;28;20039;-80
2023/02/26 09:51:57;;;;;;;2.75;0.90;;;9.10;96.70;;;;;;5083586;28;20032;-79
2023/02/26 09:54:30;;;;;;;4.38;1.23;;;9.10;97.00;;;;;;5082257;28;20028;-79
2023/02/26 09:56:59;;;;;;;5.32;0.95;;;9.00;89.70;;;;;;5081697;28;20038;-80
2023/02/26 09:59:32;;;;;;;3.30;0.90;;;9.10;81.60;;;;;;5076084;28;20024;-79
2023/02/26 10:02:15;;;;;;;3.42;0.90;;;9.20;78.30;;;;;;5076720;28;20294;-78
2023/02/26 10:04:58;;;;;;;3.60;0.90;;;9.30;81.10;;;;;;5078141;28;20028;-79
2023/02/26 10:07:57;;;;;;;4.15;1.20;;;9.70;97.30;;;;;;5077378;28;20048;-78
2023/02/26 10:10:32;;;;;;;5.18;1.00;;;9.80;87.70;;;;;;5080981;28;20063;-78
2023/02/26 10:12:59;;;;;;;4.60;0.82;;;9.90;94.60;;;;;;5075231;28;20032;-77
2023/02/26 10:15:41;;;;;;;4.72;1.00;;;9.80;92.30;;;;;;5075387;28;20020;-78
2023/02/26 10:18:10;;;;;;;2.85;0.88;;;9.80;98.70;;;;;;5074069;28;20478;-78
2023/02/26 10:21:02;;;;;;;3.38;1.00;;;9.80;97.60;;;;;;5074874;28;20030;-78
2023/02/26 10:23:28;;;;;;;3.70;0.93;;;9.90;99.90;;;;;;5077830;28;20062;-78
2023/02/26 10:26:19;;;;;;;10.32;2.58;;;9.90;97.60;;;;;;5077173;28;20024;-77
2023/02/26 10:28:58;;;;;;;4.07;0.98;;;9.90;97.10;;;;;;5060817;28;20040;-80
2023/02/26 10:31:43;;;;;;;3.42;0.88;;;10.00;94.00;;;;;;5072873;28;20707;-79
2023/02/26 10:34:11;;;;;;;3.83;1.13;;;10.20;97.60;;;;;;5073778;28;20024;-77
2023/02/26 10:37:18;;;;;;;3.22;0.88;;;10.30;99.90;;;;;;5070851;28;21519;-78
2023/02/26 10:40:08;;;;;;;2.22;0.70;;;10.30;96.30;;;;;;5071422;28;20028;-78
2023/02/26 10:42:40;;;;;;;;;;;10.30;91.30;;;;;;5074871;28;20090;-78
2023/02/26 10:45:41;;;;;;;6.50;0.98;;;10.20;92.20;;;;;;5074498;28;19916;-78
2023/02/26 10:48:28;;;;;;;4.18;0.60;;;10.10;93.50;;;;;;5075048;28;20029;-78
2023/02/26 10:50:57;;;;;;;4.13;1.08;;;10.00;85.00;;;;;;5077849;28;21031;-79
2023/02/26 10:53:25;;;;;;;3.28;0.77;;;9.90;93.60;;;;;;5078858;28;20540;-77
2023/02/26 10:56:22;;;;;;;5.53;1.52;;;10.10;99.90;;;;;;5076181;28;20037;-78
2023/02/26 10:58:50;;;;;;;4.50;0.93;;;9.90;98.10;;;;;;5071977;28;20044;-79
2023/02/26 11:01:20;;;;;;;3.58;0.90;;;10.10;99.90;;;;;;5074384;28;20053;-79
2023/02/26 11:03:49;;;;;;;3.03;1.20;;;10.20;91.90;;;;;;5078399;28;21168;-78
2023/02/26 11:06:22;;;;;;;2.40;0.80;;;10.10;94.70;;;;;;5070452;28;20291;-77
2023/02/26 11:08:51;;;;;;;2.10;0.70;;;10.10;90.40;;;;;;5069697;28;20616;-79
2023/02/26 11:11:38;;;;;;;3.38;0.95;;;10.10;94.50;;;;;;5076584;28;20027;-78
2023/02/26 11:14:03;;;;;;;2.45;0.60;;;10.10;94.40;;;;;;5074554;28;20063;-78
2023/02/26 11:16:29;;;;;;;5.88;1.20;;;10.30;96.40;;;;;;5073381;28;20047;-78
2023/02/26 11:18:59;;;;;;;6.68;1.33;;;10.30;98.00;;;;;;5075222;28;20032;-79
2023/02/26 11:21:33;;;;;;;4.50;1.05;;;10.10;93.70;;;;;;5071036;28;20079;-80
2023/02/26 11:24:26;;;;;;;2.10;0.80;;;10.00;91.20;;;;;;5070889;28;20047;-79
2023/02/26 11:26:54;;;;;;;2.55;0.80;;;10.00;91.70;;;;;;5074610;28;20027;-78
2023/02/26 11:29:22;;;;;;;2.85;0.90;;;9.90;91.40;;;;;;5076097;28;20099;-78
2023/02/26 11:31:56;;;;;;;3.60;1.02;;;9.90;88.50;;;;;;5075495;28;20498;-78
2023/02/26 11:34:24;;;;;;;3.85;0.90;;;10.10;91.80;;;;;;5073885;28;20076;-79
2023/02/26 11:36:54;;;;;;;5.13;0.90;;;10.30;94.00;;;;;;5073696;28;20042;-78
2023/02/26 11:39:25;;;;;;;3.72;0.85;;;10.70;95.80;;;;;;5072258;28;20032;-79
2023/02/26 11:41:55;;;;;;;2.60;0.80;;;10.90;94.70;;;;;;5073222;28;20046;-79
2023/02/26 11:44:44;;;;;;;4.55;1.15;;;11.10;88.40;;;;;;5074229;28;20520;-80
2023/02/26 11:47:21;;;;;;;3.63;0.82;;;11.20;95.10;;;;;;5071981;28;20035;-78
2023/02/26 11:49:52;;;;;;;3.10;0.80;;;11.40;96.50;;;;;;5077193;28;20082;-79
2023/02/26 11:52:21;;;;;;;3.70;0.70;;;;;;;;;;5078263;28;20585;-79
2023/02/26 11:54:50;;;;;;;2.53;0.80;;;11.80;99.00;;;;;;5075079;28;20020;-78
2023/02/26 11:57:19;;;;;;;3.33;0.90;;;11.60;97.00;;;;;;5071577;28;20024;-79
2023/02/26 11:59:50;;;;;;;2.70;0.73;;;11.50;96.10;;;;;;5071859;28;20032;-79
2023/02/26 12:02:19;;;;;;;2.75;0.80;;;11.50;96.60;;;;;;5069991;28;20340;-77
2023/02/26 12:04:51;;;;;;;4.10;0.80;;;11.70;99.90;;;;;;5072852;28;20049;-80
2023/02/26 12:07:19;;;;;;;4.30;0.93;;;11.60;99.90;;;;;;5072060;28;20052;-77
2023/02/26 12:09:46;;;;;;;3.75;0.70;;;11.70;99.90;;;;;;5076062;28;20039;-79
2023/02/26 12:12:46;;;;;;;3.67;0.93;;;11.60;99.90;;;;;;5080824;28;20538;-77
2023/02/26 12:15:11;;;;;;;3.17;0.80;;;11.80;99.90;;;;;;5080635;28;20119;-78
2023/02/26 12:17:56;;;;;;;4.25;0.93;;;11.80;99.90;;;;;;5079240;28;20771;-77
2023/02/26 12:20:41;;;;;;;4.60;1.10;;;11.80;99.90;;;;;;5072849;28;20024;-78
2023/02/26 12:23:28;;;;;;;3.72;1.02;;;11.80;99.90;;;;;;5082350;28;20055;-77
2023/02/26 12:26:15;;;;;;;5.13;0.90;;;11.80;99.90;;;;;;5078400;28;20615;-78
2023/02/26 12:28:57;;;;;;;3.08;0.80;;;11.50;99.90;;;;;;5075083;28;20032;-77
2023/02/26 12:31:41;;;;;;;3.50;0.68;;;11.50;99.90;;;;;;5086701;28;20135;-75
2023/02/26 12:34:32;;;;;;;4.28;0.80;;;11.60;96.10;;;;;;5077595;28;20433;-78
2023/02/26 12:37:12;;;;;;;;;;;11.60;97.00;;;;;;5080409;28;20179;-77
2023/02/26 12:39:57;;;;;;;3.90;1.00;;;11.70;99.70;;;;;;5085114;28;19904;-75
2023/02/26 12:42:43;;;;;;;2.55;0.75;;;11.70;98.10;;;;;;5086782;28;20020;-79
2023/02/26 12:45:35;;;;;;;3.92;1.65;;;11.70;99.90;;;;;;5086002;28;20043;-78
2023/02/26 12:48:19;;;;;;;3.30;0.70;;;11.90;94.30;;;;;;5087361;28;20036;-78
2023/02/26 12:51:06;;;;;;;3.67;1.10;;;12.00;95.80;;;;;;5080088;28;20031;-78
2023/02/26 12:53:58;;;;;;;3.10;0.85;;;12.10;97.20;;;;;;5073248;28;20033;-79
2023/02/26 12:56:30;;;;;;;3.40;1.10;;;12.10;99.00;;;;;;5070835;28;20024;-77
2023/02/26 12:59:14;;;;;;;2.97;1.00;;;12.30;99.90;;;;;;5086251;28;20406;-78
2023/02/26 13:02:09;;;;;;;1.95;0.60;;;12.30;95.90;;;;;;5080533;28;20025;-77
2023/02/26 13:04:41;;;;;;;2.70;0.93;;;12.50;99.70;;;;;;5078428;28;20024;-77
2023/02/26 13:07:28;;;;;;;1.60;0.70;;;12.80;99.90;;;;;;5091981;28;20044;-78
2023/02/26 13:10:17;;;;;;;3.53;0.70;;;13.00;96.90;;;;;;5084425;28;20035;-76
2023/02/26 13:13:05;;;;;;;1.63;0.50;;;12.80;99.20;;;;;;5083195;28;20048;-77
2023/02/26 13:16:12;;;;;;;5.82;2.42;;;12.80;97.10;;;;;;5073951;28;20032;-76
2023/02/26 13:19:07;;;;;;;3.72;1.27;;;12.80;99.90;;;;;;5064407;28;20058;-78
2023/02/26 13:21:40;;;;;;;5.85;0.77;;;12.60;92.90;;;;;;5075888;28;20026;-76